Time;durP1;ratioP1;P1;durP2;ratioP2;P2;SDS_P1;SDS_P2;PMS_P1;PMS_P2;Temp;Humidity;BMP_temperature;BMP_pressure;BME280_temperature;BME280_humidity;BME280_pressure;Samples;Min_cycle;Max_cycle;Signal;HPM_P1;HPM_P2
2024/01/25 00:00:19;;;;;;;30.95;6.85;;;;;;;9.91;100.00;102734.06;5259865;28;20047;-80
2024/01/25 00:02:51;;;;;;;30.23;6.88;;;;;;;9.89;100.00;102745.56;5257904;28;20493;-80
2024/01/25 00:05:23;;;;;;;30.70;7.05;;;;;;;9.88;100.00;102746.47;5260725;28;20029;-80
2024/01/25 00:07:54;;;;;;;27.88;6.45;;;;;;;9.79;100.00;102733.88;5260915;28;20041;-80
2024/01/25 00:10:26;;;;;;;26.05;6.72;;;;;;;9.79;100.00;102733.88;5256331;28;20028;-80
2024/01/25 00:12:58;;;;;;;24.58;6.55;;;;;;;9.68;100.00;102727.41;5259639;28;20051;-80
2024/01/25 00:15:30;;;;;;;34.03;8.18;;;;;;;9.71;100.00;102734.25;5255837;28;20032;-80
2024/01/25 00:18:02;;;;;;;29.88;6.75;;;;;;;9.64;100.00;102731.09;5262745;28;20032;-80
2024/01/25 00:20:34;;;;;;;29.35;7.40;;;;;;;9.60;100.00;102736.56;5261225;28;20036;-80
2024/01/25 00:23:06;;;;;;;30.60;7.07;;;;;;;9.57;100.00;102721.03;5259099;28;20037;-80
2024/01/25 00:25:38;;;;;;;28.60;7.20;;;;;;;9.50;100.00;102723.94;5259569;28;20717;-80
2024/01/25 00:28:12;;;;;;;34.22;7.93;;;;;;;9.48;100.00;102731.03;5258566;28;20278;-80
2024/01/25 00:30:43;;;;;;;;;;;;;;;10.12;100.00;102741.75;5259275;28;20024;-80
2024/01/25 00:33:15;;;;;;;31.83;8.32;;;;;;;9.43;100.00;102729.56;5258498;28;19951;-80
2024/01/25 00:35:48;;;;;;;31.90;6.60;;;;;;;9.42;100.00;102733.94;5254599;28;20056;-80
2024/01/25 00:38:20;;;;;;;32.08;7.38;;;;;;;9.39;100.00;102726.25;5260257;28;20036;-80
2024/01/25 00:40:52;;;;;;;30.55;6.53;;;;;;;9.26;100.00;102717.31;5258376;28;20492;-80
2024/01/25 00:43:24;;;;;;;29.40;6.78;;;;;;;9.19;100.00;102713.31;5257696;28;20025;-80
2024/01/25 00:45:56;;;;;;;31.15;7.25;;;;;;;9.26;100.00;102728.63;5252985;28;20766;-80
2024/01/25 00:48:28;;;;;;;30.08;8.57;;;;;;;9.23;100.00;102730.56;5259728;28;20025;-80
2024/01/25 00:51:01;;;;;;;30.80;7.43;;;;;;;9.16;100.00;102727.38;5259591;28;20060;-80
2024/01/25 00:53:33;;;;;;;33.90;6.97;;;;;;;9.18;100.00;102733.41;5259305;28;20032;-80
2024/01/25 00:56:05;;;;;;;29.40;7.13;;;;;;;9.14;100.00;102742.31;5257276;28;20043;-80
2024/01/25 00:58:38;;;;;;;29.08;7.28;;;;;;;9.11;100.00;102741.59;5258812;28;20041;-80
2024/01/25 01:01:10;;;;;;;32.15;6.90;;;;;;;9.08;100.00;102750.44;5256447;28;20032;-80
2024/01/25 01:03:42;;;;;;;28.40;7.07;;;;;;;9.07;100.00;102747.91;5258533;28;20076;-80
2024/01/25 01:06:14;;;;;;;30.77;7.50;;;;;;;8.92;100.00;102732.03;5258675;28;20037;-79
2024/01/25 01:08:46;;;;;;;31.17;6.53;;;;;;;8.94;100.00;102739.78;5265226;28;20036;-80
2024/01/25 01:11:19;;;;;;;33.10;7.25;;;;;;;8.96;100.00;102745.81;5260332;28;20043;-80
2024/01/25 01:13:51;;;;;;;31.67;7.13;;;;;;;8.91;100.00;102735.56;5258790;28;20035;-80
2024/01/25 01:16:22;;;;;;;30.67;6.50;;;;;;;8.91;100.00;102746.03;5257242;28;20032;-80
2024/01/25 01:18:54;;;;;;;27.90;6.97;;;;;;;8.89;100.00;102750.47;5257371;28;20025;-80
2024/01/25 01:21:26;;;;;;;35.53;7.60;;;;;;;8.85;100.00;102738.47;5257224;28;20587;-80
2024/01/25 01:23:58;;;;;;;30.67;7.63;;;;;;;8.83;100.00;102756.00;5257126;28;20040;-80
2024/01/25 01:26:30;;;;;;;34.40;8.30;;;;;;;8.82;100.00;102756.06;5258717;28;20032;-80
2024/01/25 01:29:02;;;;;;;37.25;7.18;;;;;;;8.81;100.00;102763.06;5256115;28;20032;-80
2024/01/25 01:31:34;;;;;;;37.78;7.32;;;;;;;8.81;100.00;102770.06;5259843;28;20037;-80
2024/01/25 01:34:06;;;;;;;29.92;6.57;;;;;;;8.70;100.00;102752.25;5255455;28;20043;-80
2024/01/25 01:36:38;;;;;;;32.47;7.03;;;;;;;8.67;100.00;102736.72;5255782;28;20509;-80
2024/01/25 01:39:10;;;;;;;38.75;7.75;;;;;;;8.70;100.00;102765.31;5258457;28;20039;-80
2024/01/25 01:41:47;;;;;;;32.67;7.10;;;;;;;8.80;100.00;102770.97;5259699;28;20048;-80
2024/01/25 01:44:19;;;;;;;27.77;6.68;;;;;;;8.62;100.00;102752.59;5258262;28;20028;-80
2024/01/25 01:46:51;;;;;;;30.52;7.88;;;;;;;8.63;100.00;102759.50;5260174;28;20097;-80
2024/01/25 01:49:23;;;;;;;35.80;8.68;;;;;;;8.59;100.00;102775.41;5257529;28;20044;-80
2024/01/25 01:51:55;;;;;;;30.27;7.15;;;;;;;8.56;100.00;102772.94;5257405;28;20859;-80
2024/01/25 01:54:27;;;;;;;32.03;7.40;;;;;;;8.57;100.00;102770.25;5260413;28;20406;-80
2024/01/25 01:56:59;;;;;;;33.72;7.80;;;;;;;8.53;100.00;102781.78;5254854;28;20047;-80
2024/01/25 01:59:31;;;;;;;32.35;6.88;;;;;;;8.53;100.00;102789.63;5262384;28;20044;-80
2024/01/25 02:02:03;;;;;;;29.70;6.75;;;;;;;8.48;100.00;102797.63;5261541;28;20064;-80
2024/01/25 02:04:35;;;;;;;30.48;7.60;;;;;;;8.45;100.00;102794.34;5262495;28;20032;-80
2024/01/25 02:07:07;;;;;;;31.52;7.45;;;;;;;8.42;100.00;102805.75;5256518;28;20363;-80
2024/01/25 02:09:39;;;;;;;26.30;6.18;;;;;;;8.39;100.00;102799.81;5261445;28;20047;-81
2024/01/25 02:12:16;;;;;;;38.22;8.82;;;;;;;8.47;100.00;102802.94;5260000;28;20024;-81
2024/01/25 02:14:47;;;;;;;34.38;7.78;;;;;;;8.32;100.00;102799.19;5259385;28;20045;-80
2024/01/25 02:17:19;;;;;;;36.15;8.45;;;;;;;8.26;100.00;102810.78;5258313;28;20033;-80
2024/01/25 02:19:51;;;;;;;31.90;7.28;;;;;;;8.29;100.00;102815.84;5256995;28;20028;-81
2024/01/25 02:22:23;;;;;;;35.38;7.60;;;;;;;8.17;100.00;102811.16;5256181;28;20680;-81
2024/01/25 02:24:55;;;;;;;34.42;8.15;;;;;;;8.20;100.00;102820.63;5261571;28;20790;-81
2024/01/25 02:27:27;;;;;;;28.25;8.52;;;;;;;8.20;100.00;102826.69;5252181;28;20152;-81
2024/01/25 02:29:59;;;;;;;30.50;7.45;;;;;;;8.16;100.00;102826.91;5257366;28;20099;-80
2024/01/25 02:32:31;;;;;;;29.58;7.78;;;;;;;8.11;100.00;102824.50;5262958;28;20037;-80
2024/01/25 02:35:03;;;;;;;29.52;7.45;;;;;;;8.09;100.00;102834.16;5254486;28;20032;-81
2024/01/25 02:37:35;;;;;;;28.00;6.28;;;;;;;8.07;100.00;102832.50;5260450;28;20047;-81
2024/01/25 02:40:07;;;;;;;29.48;6.22;;;;;;;8.03;100.00;102832.66;5259313;28;20032;-80
2024/01/25 02:42:39;;;;;;;32.37;8.27;;;;;;;8.03;100.00;102835.25;5261788;28;20036;-81
2024/01/25 02:45:11;;;;;;;34.33;8.57;;;;;;;8.03;100.00;102830.03;5260544;28;20687;-81
2024/01/25 02:47:43;;;;;;;35.13;7.35;;;;;;;7.99;100.00;102832.81;5256505;28;20032;-80
2024/01/25 02:50:16;;;;;;;28.02;8.10;;;;;;;7.98;100.00;102828.53;5260255;28;20032;-81
2024/01/25 02:52:48;;;;;;;32.30;6.93;;;;;;;7.94;100.00;102829.56;5260643;28;20025;-80
2024/01/25 02:55:20;;;;;;;26.35;6.35;;;;;;;7.90;100.00;102828.84;5259333;28;20087;-80
2024/01/25 02:57:51;;;;;;;28.10;6.88;;;;;;;7.86;100.00;102827.28;5252661;28;20036;-80
2024/01/25 03:00:23;;;;;;;29.05;8.63;;;;;;;7.81;100.00;102818.81;5255030;28;20032;-80
2024/01/25 03:02:55;;;;;;;31.88;6.40;;;;;;;7.84;100.00;102829.13;5252931;28;20536;-80
2024/01/25 03:05:27;;;;;;;28.17;7.22;;;;;;;7.78;100.00;102827.59;5252691;28;20151;-80
2024/01/25 03:07:59;;;;;;;33.53;6.85;;;;;;;7.76;100.00;102823.34;5253851;28;20029;-81
2024/01/25 03:10:31;;;;;;;26.98;5.80;;;;;;;7.68;100.00;102826.28;5260059;28;20049;-80
2024/01/25 03:13:03;;;;;;;32.03;6.95;;;;;;;7.66;100.00;102819.44;5256242;28;20043;-80
2024/01/25 03:15:35;;;;;;;24.35;6.25;;;;;;;7.61;100.00;102817.00;5252577;28;20064;-81
2024/01/25 03:18:07;;;;;;;30.00;6.25;;;;;;;7.56;100.00;102825.00;5257472;28;20036;-80
2024/01/25 03:20:39;;;;;;;29.42;7.32;;;;;;;7.53;100.00;102827.75;5256495;28;20033;-80
2024/01/25 03:23:11;;;;;;;28.35;7.13;;;;;;;7.54;100.00;102812.97;5256774;28;20040;-80
2024/01/25 03:25:42;;;;;;;29.38;7.03;;;;;;;7.48;100.00;102810.59;5257090;28;20043;-80
2024/01/25 03:28:16;;;;;;;26.95;7.40;;;;;;;7.49;100.00;102820.94;5252727;28;20032;-80
2024/01/25 03:30:48;;;;;;;;;;;;;;;8.11;100.00;102815.81;5261682;28;20032;-80
2024/01/25 03:33:19;;;;;;;27.75;6.55;;;;;;;7.46;100.00;102820.22;5257516;28;20345;-80
2024/01/25 03:35:51;;;;;;;27.30;6.55;;;;;;;7.37;100.00;102821.44;5254141;28;20029;-81
2024/01/25 03:38:23;;;;;;;28.27;6.95;;;;;;;7.37;100.00;102825.81;5257485;28;20098;-81
2024/01/25 03:40:58;;;;;;;26.90;6.75;;;;;;;7.34;100.00;102828.53;5259760;28;20123;-81
2024/01/25 03:43:30;;;;;;;31.48;6.78;;;;;;;7.36;100.00;102831.94;5253723;28;20028;-81
2024/01/25 03:46:05;;;;;;;35.25;7.43;;;;;;;7.36;100.00;102832.78;5251367;28;20402;-81
2024/01/25 03:48:37;;;;;;;33.63;6.85;;;;;;;7.33;100.00;102840.72;5258571;28;20033;-81
2024/01/25 03:51:09;;;;;;;31.15;6.43;;;;;;;7.27;100.00;102838.34;5256785;28;20059;-81
2024/01/25 03:53:42;;;;;;;23.67;6.80;;;;;;;7.22;100.00;102840.31;5258702;28;20421;-81
2024/01/25 03:56:17;;;;;;;;;;;;;;;7.87;100.00;102838.56;5254753;28;20037;-81
2024/01/25 03:58:49;;;;;;;24.63;5.68;;;;;;;7.23;100.00;102835.00;5257220;28;20291;-81
2024/01/25 04:01:20;;;;;;;31.50;8.40;;;;;;;7.28;100.00;102834.84;5257135;28;20430;-81
2024/01/25 04:03:52;;;;;;;30.77;7.25;;;;;;;7.18;100.00;102834.34;5253821;28;20043;-81
2024/01/25 04:06:24;;;;;;;26.42;7.72;;;;;;;7.17;100.00;102832.66;5258215;28;20029;-81
2024/01/25 04:08:56;;;;;;;34.60;6.82;;;;;;;7.12;100.00;102838.94;5247191;28;20043;-81
2024/01/25 04:11:28;;;;;;;28.25;5.90;;;;;;;7.10;100.00;102840.78;5255782;28;20033;-81
2024/01/25 04:14:00;;;;;;;25.95;6.10;;;;;;;7.07;100.00;102846.94;5251440;28;20043;-81
2024/01/25 04:16:33;;;;;;;27.00;6.57;;;;;;;7.04;100.00;102842.69;5249001;28;20040;-81
2024/01/25 04:19:05;;;;;;;31.98;6.40;;;;;;;7.04;100.00;102844.44;5258467;28;20052;-81
2024/01/25 04:21:37;;;;;;;30.50;6.43;;;;;;;6.99;100.00;102849.84;5256183;28;20028;-81
2024/01/25 04:24:09;;;;;;;32.13;7.53;;;;;;;6.98;100.00;102862.94;5249844;28;20037;-81
2024/01/25 04:26:41;;;;;;;28.67;7.05;;;;;;;6.91;100.00;102845.84;5259203;28;20039;-81
2024/01/25 04:29:13;;;;;;;26.40;6.40;;;;;;;6.93;100.00;102844.88;5256238;28;21545;-81
2024/01/25 04:31:46;;;;;;;26.08;5.57;;;;;;;6.85;100.00;102836.47;5260242;28;20048;-81
2024/01/25 04:34:18;;;;;;;32.13;7.10;;;;;;;6.88;100.00;102836.38;5257386;28;20032;-81
2024/01/25 04:36:49;;;;;;;30.15;7.30;;;;;;;6.85;100.00;102852.09;5254380;28;20031;-81
2024/01/25 04:39:22;;;;;;;23.80;6.40;;;;;;;6.89;100.00;102837.22;5252938;28;20471;-81
2024/01/25 04:41:53;;;;;;;24.23;5.72;;;;;;;6.83;100.00;102839.16;5254405;28;20037;-81
2024/01/25 04:44:25;;;;;;;25.20;6.75;;;;;;;6.76;100.00;102823.81;5255489;28;20051;-81
2024/01/25 04:46:57;;;;;;;31.10;6.60;;;;;;;6.83;100.00;102838.31;5264020;28;20053;-81
2024/01/25 04:49:29;;;;;;;31.08;8.13;;;;;;;6.78;100.00;102833.28;5252096;28;20043;-81
2024/01/25 04:52:01;;;;;;;33.30;6.93;;;;;;;6.76;100.00;102839.44;5255228;28;20043;-81
2024/01/25 04:54:33;;;;;;;29.67;6.28;;;;;;;6.73;100.00;102837.78;5253194;28;20055;-81
2024/01/25 04:57:06;;;;;;;28.08;6.47;;;;;;;6.66;100.00;102825.03;5250608;28;20029;-81
2024/01/25 04:59:38;;;;;;;26.52;6.45;;;;;;;6.69;100.00;102837.97;5257771;28;20052;-81
2024/01/25 05:02:10;;;;;;;32.10;6.57;;;;;;;6.64;100.00;102839.88;5252485;28;20040;-81
2024/01/25 05:04:42;;;;;;;26.92;6.90;;;;;;;6.62;100.00;102839.91;5253536;28;20032;-81
2024/01/25 05:07:13;;;;;;;26.50;6.85;;;;;;;6.56;100.00;102841.00;5254184;28;20042;-81
2024/01/25 05:09:45;;;;;;;29.98;7.43;;;;;;;6.49;100.00;102833.47;5252540;28;20033;-81
2024/01/25 05:12:17;;;;;;;33.22;7.80;;;;;;;6.49;100.00;102836.91;5258737;28;20428;-81
2024/01/25 05:14:49;;;;;;;29.05;6.85;;;;;;;6.46;100.00;102834.41;5250043;28;20044;-81
2024/01/25 05:17:21;;;;;;;23.92;6.45;;;;;;;6.46;100.00;102823.16;5251456;28;20128;-81
2024/01/25 05:19:53;;;;;;;26.42;5.88;;;;;;;6.48;100.00;102830.03;5252776;28;20029;-81
2024/01/25 05:22:25;;;;;;;25.73;6.75;;;;;;;6.44;100.00;102819.75;5254728;28;20046;-81
2024/01/25 05:24:57;;;;;;;25.52;6.57;;;;;;;6.32;100.00;102819.28;5253529;28;20041;-81
2024/01/25 05:27:29;;;;;;;27.33;5.93;;;;;;;6.30;100.00;102809.84;5254873;28;20034;-81
2024/01/25 05:30:01;;;;;;;24.75;6.43;;;;;;;6.28;100.00;102825.50;5249800;28;20064;-81
2024/01/25 05:32:33;;;;;;;23.70;6.35;;;;;;;6.29;100.00;102840.25;5258940;28;20029;-81
2024/01/25 05:35:06;;;;;;;29.92;7.03;;;;;;;6.26;100.00;102840.34;5253975;28;20040;-81
2024/01/25 05:37:37;;;;;;;29.88;6.32;;;;;;;6.24;100.00;102844.72;5261909;28;20032;-81
2024/01/25 05:40:10;;;;;;;24.17;7.38;;;;;;;6.15;100.00;102844.22;5254323;28;20052;-81
2024/01/25 05:42:42;;;;;;;22.38;6.75;;;;;;;6.20;100.00;102839.69;5258097;28;20044;-81
2024/01/25 05:45:14;;;;;;;25.17;6.60;;;;;;;6.11;100.00;102840.88;5258674;28;20549;-81
2024/01/25 05:47:47;;;;;;;23.17;5.95;;;;;;;6.17;100.00;102843.25;5257969;28;20064;-81
2024/01/25 05:50:19;;;;;;;24.35;5.80;;;;;;;6.19;100.00;102848.41;5259937;28;20045;-81
2024/01/25 05:52:50;;;;;;;26.38;5.82;;;;;;;6.17;100.00;102845.84;5255224;28;20397;-81
2024/01/25 05:55:22;;;;;;;25.77;6.28;;;;;;;6.17;100.00;102842.41;5257325;28;20024;-81
2024/01/25 05:57:54;;;;;;;25.90;6.40;;;;;;;6.17;100.00;102853.66;5256557;28;20028;-81
2024/01/25 06:00:28;;;;;;;26.83;6.30;;;;;;;6.20;100.00;102857.91;5259672;28;20025;-81
2024/01/25 06:03:00;;;;;;;23.50;6.18;;;;;;;6.20;100.00;102855.31;5258109;28;21470;-80
2024/01/25 06:05:31;;;;;;;32.05;7.30;;;;;;;6.16;100.00;102851.09;5259808;28;20029;-81
2024/01/25 06:08:04;;;;;;;28.13;7.55;;;;;;;6.08;100.00;102839.22;5260295;28;20031;-81
2024/01/25 06:10:36;;;;;;;28.05;6.32;;;;;;;6.16;100.00;102838.94;5257611;28;20048;-81
2024/01/25 06:13:07;;;;;;;26.83;6.18;;;;;;;6.10;100.00;102841.78;5253176;28;20053;-81
2024/01/25 06:15:39;;;;;;;29.08;7.65;;;;;;;6.06;100.00;102846.22;5252205;28;20047;-80
2024/01/25 06:18:11;;;;;;;24.30;5.43;;;;;;;6.01;100.00;102853.31;5256945;28;20025;-80
2024/01/25 06:20:44;;;;;;;22.00;6.30;;;;;;;6.00;100.00;102854.22;5256507;28;20043;-80
2024/01/25 06:23:15;;;;;;;30.98;8.15;;;;;;;6.03;100.00;102842.88;5253330;28;20525;-80
2024/01/25 06:25:47;;;;;;;20.67;5.95;;;;;;;5.96;100.00;102854.38;5267652;28;20057;-80
2024/01/25 06:28:19;;;;;;;28.65;7.20;;;;;;;5.91;100.00;102867.53;5253852;28;20040;-81
2024/01/25 06:30:51;;;;;;;21.35;6.07;;;;;;;5.97;100.00;102872.53;5252049;28;20025;-81
2024/01/25 06:33:23;;;;;;;25.25;6.43;;;;;;;5.92;100.00;102874.44;5257368;28;20382;-81
2024/01/25 06:35:57;;;;;;;29.65;7.35;;;;;;;5.81;100.00;102864.34;5257610;28;20034;-81
2024/01/25 06:38:29;;;;;;;25.13;6.80;;;;;;;5.79;100.00;102863.53;5254080;28;20035;-81
2024/01/25 06:41:01;;;;;;;24.75;6.78;;;;;;;5.81;100.00;102861.75;5247629;28;20029;-81
2024/01/25 06:43:33;;;;;;;26.15;6.60;;;;;;;5.86;100.00;102859.00;5251634;28;20115;-80
2024/01/25 06:46:05;;;;;;;23.45;6.85;;;;;;;5.79;100.00;102860.09;5254392;28;20045;-81
2024/01/25 06:48:37;;;;;;;32.08;6.95;;;;;;;5.78;100.00;102871.41;5259628;28;20043;-80
2024/01/25 06:51:09;;;;;;;25.60;6.78;;;;;;;5.74;100.00;102864.59;5257683;28;20045;-79
2024/01/25 06:53:41;;;;;;;23.15;6.03;;;;;;;5.67;100.00;102860.50;5254946;28;21134;-79
2024/01/25 06:56:13;;;;;;;25.27;6.80;;;;;;;5.61;100.00;102853.75;5257922;28;20025;-79
2024/01/25 06:58:45;;;;;;;27.05;6.50;;;;;;;5.55;100.00;102862.59;5256249;28;20044;-79
2024/01/25 07:01:22;;;;;;;21.63;6.10;;;;;;;5.66;100.00;102871.81;5257489;28;20032;-78
2024/01/25 07:03:54;;;;;;;28.20;7.50;;;;;;;5.54;100.00;102870.44;5260990;28;20035;-79
2024/01/25 07:06:26;;;;;;;25.35;7.15;;;;;;;5.51;100.00;102873.13;5256629;28;20422;-79
2024/01/25 07:08:58;;;;;;;26.20;7.13;;;;;;;5.50;100.00;102877.50;5257433;28;20036;-78
2024/01/25 07:11:30;;;;;;;23.17;5.93;;;;;;;5.43;100.00;102869.94;5257561;28;20302;-79
2024/01/25 07:14:02;;;;;;;19.55;6.78;;;;;;;5.41;100.00;102866.50;5255165;28;20039;-78
2024/01/25 07:16:34;;;;;;;21.33;6.63;;;;;;;5.45;100.00;102870.72;5255714;28;20036;-79
2024/01/25 07:19:06;;;;;;;26.52;6.55;;;;;;;5.42;100.00;102874.28;5253636;28;20036;-78
2024/01/25 07:21:40;;;;;;;26.38;6.75;;;;;;;5.44;100.00;102869.88;5258998;28;20032;-79
2024/01/25 07:24:12;;;;;;;23.75;5.93;;;;;;;5.44;100.00;102872.47;5255895;28;20028;-79
2024/01/25 07:26:44;;;;;;;19.85;6.28;;;;;;;5.47;100.00;102880.19;5255933;28;20029;-79
2024/01/25 07:29:15;;;;;;;24.27;6.30;;;;;;;5.42;100.00;102871.69;5252897;28;20397;-79
2024/01/25 07:31:47;;;;;;;26.13;7.28;;;;;;;5.49;100.00;102885.31;5253455;28;20039;-79
2024/01/25 07:34:19;;;;;;;29.55;7.13;;;;;;;5.52;100.00;102885.22;5255309;28;20044;-78
2024/01/25 07:36:51;;;;;;;26.50;6.88;;;;;;;5.52;100.00;102885.22;5255910;28;20039;-78
2024/01/25 07:39:23;;;;;;;29.92;7.20;;;;;;;5.57;100.00;102881.59;5253103;28;20036;-79
2024/01/25 07:41:55;;;;;;;32.22;7.55;;;;;;;5.64;100.00;102884.84;5259710;28;20478;-79
2024/01/25 07:44:27;;;;;;;37.35;8.60;;;;;;;5.67;100.00;102876.09;5241751;28;20025;-78
2024/01/25 07:46:59;;;;;;;29.00;7.60;;;;;;;5.73;100.00;102891.53;5254550;28;20272;-79
2024/01/25 07:49:31;;;;;;;30.70;7.55;;;;;;;5.77;100.00;102888.78;5252737;28;20041;-79
2024/01/25 07:52:03;;;;;;;28.13;7.45;;;;;;;5.78;100.00;102879.22;5256532;28;20051;-79
2024/01/25 07:54:35;;;;;;;31.50;8.27;;;;;;;5.80;100.00;102875.66;5254056;28;20032;-78
2024/01/25 07:57:06;;;;;;;23.55;7.10;;;;;;;5.78;100.00;102876.59;5256497;28;20294;-79
2024/01/25 07:59:38;;;;;;;21.98;6.53;;;;;;;5.85;100.00;102880.72;5247412;28;20037;-79
2024/01/25 08:02:10;;;;;;;36.97;8.27;;;;;;;5.89;100.00;102879.72;5253828;28;20036;-79
2024/01/25 08:04:42;;;;;;;25.35;7.65;;;;;;;5.93;100.00;102890.91;5250753;28;20508;-79
2024/01/25 08:07:14;;;;;;;24.90;6.60;;;;;;;5.95;100.00;102887.38;5260630;28;20465;-79
2024/01/25 08:09:46;;;;;;;29.58;7.97;;;;;;;5.98;100.00;102896.81;5256152;28;20520;-79
2024/01/25 08:12:18;;;;;;;37.22;7.75;;;;;;;5.95;100.00;102889.13;5249313;28;20037;-79
2024/01/25 08:14:50;;;;;;;30.90;7.70;;;;;;;5.99;100.00;102890.72;5247949;28;20039;-79
2024/01/25 08:17:22;;;;;;;30.13;7.57;;;;;;;6.07;100.00;102889.56;5256818;28;20024;-79
2024/01/25 08:19:53;;;;;;;30.15;8.45;;;;;;;6.09;100.00;102902.50;5252507;28;20500;-79
2024/01/25 08:22:25;;;;;;;28.55;8.45;;;;;;;6.10;100.00;102906.84;5250417;28;20032;-79
2024/01/25 08:24:58;;;;;;;27.80;7.25;;;;;;;6.09;100.00;102898.16;5251206;28;20042;-79
2024/01/25 08:27:30;;;;;;;28.88;8.13;;;;;;;6.17;100.00;102881.44;5253068;28;20047;-79
2024/01/25 08:30:03;;;;;;;27.75;8.80;;;;;;;6.18;100.00;102867.53;5250201;28;20040;-79
2024/01/25 08:32:35;;;;;;;26.65;8.32;;;;;;;6.20;100.00;102853.56;5252167;28;20039;-79
2024/01/25 08:35:07;;;;;;;29.85;9.30;;;;;;;6.23;100.00;102861.25;5253438;28;20417;-79
2024/01/25 08:37:39;;;;;;;20.60;7.78;;;;;;;6.26;100.00;102871.56;5249105;28;20029;-79
2024/01/25 08:40:12;;;;;;;26.77;9.30;;;;;;;6.33;100.00;102867.00;5255454;28;20371;-79
2024/01/25 08:42:43;;;;;;;27.70;9.35;;;;;;;6.29;100.00;102868.03;5251606;28;20270;-79
2024/01/25 08:45:15;;;;;;;24.67;8.25;;;;;;;6.36;100.00;102895.53;5257459;28;20591;-79
2024/01/25 08:47:49;;;;;;;30.90;9.05;;;;;;;6.36;100.00;102895.53;5255942;28;20110;-79
2024/01/25 08:50:20;;;;;;;;;;;;;;;6.91;100.00;102897.94;5249536;28;20053;-79
2024/01/25 08:52:52;;;;;;;24.15;9.80;;;;;;;6.45;100.00;102896.97;5252154;28;20287;-79
2024/01/25 08:55:24;;;;;;;27.10;9.93;;;;;;;6.44;100.00;102897.84;5257694;28;20032;-79
2024/01/25 08:57:56;;;;;;;24.55;10.07;;;;;;;6.44;100.00;102892.66;5253944;28;20036;-79
2024/01/25 09:00:28;;;;;;;31.30;11.02;;;;;;;6.53;100.00;102898.41;5251057;28;20038;-79
2024/01/25 09:03:00;;;;;;;24.45;10.80;;;;;;;6.54;100.00;102892.28;5260823;28;20487;-79
2024/01/25 09:05:34;;;;;;;28.35;11.70;;;;;;;6.56;100.00;102897.47;5259160;28;20035;-79
2024/01/25 09:08:07;;;;;;;32.65;11.73;;;;;;;6.56;100.00;102890.50;5256580;28;20033;-79
2024/01/25 09:10:40;;;;;;;24.60;10.55;;;;;;;6.60;100.00;102893.00;5258282;28;20036;-79
2024/01/25 09:13:13;;;;;;;26.15;12.77;;;;;;;6.55;100.00;102886.19;5260799;28;20024;-79
2024/01/25 09:15:46;;;;;;;27.33;11.18;;;;;;;6.70;100.00;102902.16;5258545;28;20811;-79
2024/01/25 09:18:19;;;;;;;26.52;12.23;;;;;;;6.74;100.00;102903.75;5260459;28;20025;-79
2024/01/25 09:20:51;;;;;;;26.20;12.05;;;;;;;6.76;100.00;102901.94;5256073;28;20409;-79
2024/01/25 09:23:23;;;;;;;27.05;12.73;;;;;;;6.77;100.00;102903.66;5250731;28;20041;-80
2024/01/25 09:25:54;;;;;;;29.98;12.98;;;;;;;6.85;100.00;102898.16;5253370;28;20039;-79
2024/01/25 09:28:26;;;;;;;22.52;12.35;;;;;;;6.88;100.00;102892.84;5259193;28;20477;-79
2024/01/25 09:30:58;;;;;;;28.95;13.95;;;;;;;6.88;100.00;102891.09;5256674;28;20079;-79
2024/01/25 09:33:31;;;;;;;30.50;13.73;;;;;;;7.00;100.00;102908.88;5254393;28;20017;-79
2024/01/25 09:36:03;;;;;;;31.70;13.95;;;;;;;7.03;100.00;102893.13;5262421;28;20036;-79
2024/01/25 09:38:35;;;;;;;33.08;15.00;;;;;;;7.10;100.00;102901.56;5255611;28;20032;-79
2024/01/25 09:41:07;;;;;;;29.70;14.23;;;;;;;7.15;100.00;102894.41;5255805;28;20035;-79
2024/01/25 09:43:39;;;;;;;30.05;14.52;;;;;;;7.24;100.00;102896.69;5255020;28;20061;-81
2024/01/25 09:46:15;;;;;;;24.65;13.80;;;;;;;7.32;100.00;102902.47;5252786;28;20032;-79
2024/01/25 09:48:47;;;;;;;25.30;13.45;;;;;;;7.32;100.00;102915.50;5247658;28;20043;-79
2024/01/25 09:51:19;;;;;;;26.27;12.93;;;;;;;7.35;100.00;102911.94;5247603;28;20517;-79
2024/01/25 09:53:54;;;;;;;26.45;12.68;;;;;;;7.41;100.00;102911.69;5256294;28;20032;-81
2024/01/25 09:56:30;;;;;;;21.70;11.25;;;;;;;7.36;100.00;102918.84;5254325;28;20033;-80
2024/01/25 09:59:04;;;;;;;22.42;12.05;;;;;;;7.42;100.00;102904.72;5252422;28;20037;-80
2024/01/25 10:01:36;;;;;;;25.75;11.88;;;;;;;7.49;100.00;102898.34;5256355;28;20025;-78
2024/01/25 10:04:08;;;;;;;25.85;12.43;;;;;;;7.50;100.00;102895.69;5249249;28;20135;-78
2024/01/25 10:06:40;;;;;;;28.63;13.15;;;;;;;7.52;100.00;102886.03;5244055;28;20032;-80
2024/01/25 10:09:14;;;;;;;32.35;12.95;;;;;;;7.61;100.00;102897.00;5255107;28;20043;-79
2024/01/25 10:11:45;;;;;;;28.73;12.50;;;;;;;7.66;100.00;102887.28;5256542;28;20028;-79
2024/01/25 10:14:17;;;;;;;26.60;12.82;;;;;;;7.67;100.00;102876.75;5250773;28;20040;-80
2024/01/25 10:16:50;;;;;;;23.83;12.43;;;;;;;7.67;100.00;102866.31;5252599;28;20049;-78
2024/01/25 10:19:22;;;;;;;27.45;13.27;;;;;;;7.82;100.00;102877.06;5258967;28;20474;-79
2024/01/25 10:21:53;;;;;;;28.60;13.80;;;;;;;7.86;100.00;102879.47;5250661;28;20024;-78
2024/01/25 10:24:25;;;;;;;29.23;14.05;;;;;;;7.92;100.00;102878.38;5257717;28;20025;-80
2024/01/25 10:26:57;;;;;;;30.50;13.90;;;;;;;8.00;100.00;102876.31;5258125;28;20047;-79
2024/01/25 10:29:29;;;;;;;32.13;13.80;;;;;;;7.94;100.00;102856.50;5256745;28;20466;-78
2024/01/25 10:32:02;;;;;;;36.53;13.90;;;;;;;8.14;100.00;102871.34;5253364;28;20033;-78
2024/01/25 10:34:36;;;;;;;28.83;14.27;;;;;;;8.20;100.00;102849.34;5258364;28;20041;-79
2024/01/25 10:37:08;;;;;;;;;;;;;;;8.78;100.00;102852.03;5258784;28;20033;-79
2024/01/25 10:39:41;;;;;;;28.42;12.93;;;;;;;8.36;100.00;102857.38;5253337;28;19921;-79
2024/01/25 10:42:13;;;;;;;;;;;;;;;8.90;100.00;102842.78;5259492;28;20439;-78
2024/01/25 10:44:45;;;;;;;41.90;14.70;;;;;;;8.47;100.00;102836.91;5258464;28;19961;-78
2024/01/25 10:47:17;;;;;;;35.80;14.05;;;;;;;8.52;100.00;102832.31;5262490;28;20369;-79
2024/01/25 10:49:50;;;;;;;36.47;13.48;;;;;;;8.52;100.00;102827.06;5259677;28;20037;-78
2024/01/25 10:52:23;;;;;;;33.40;12.90;;;;;;;8.56;100.00;102828.66;5261630;28;20053;-79
2024/01/25 10:54:56;;;;;;;38.22;13.77;;;;;;;8.53;100.00;102827.03;5255802;28;20553;-79
2024/01/25 10:57:35;;;;;;;34.42;13.07;;;;;;;8.72;100.00;102828.81;5257988;28;20024;-79
2024/01/25 11:00:09;;;;;;;34.90;13.75;;;;;;;8.72;100.00;102831.44;5259355;28;20035;-79
2024/01/25 11:02:42;;;;;;;37.78;13.50;;;;;;;8.62;100.00;102822.31;5255549;28;20056;-79
2024/01/25 11:05:17;;;;;;;28.35;10.95;;;;;;;8.81;100.00;102833.63;5261309;28;20043;-80
2024/01/25 11:07:50;;;;;;;33.60;12.95;;;;;;;8.78;100.00;102824.16;5251307;28;21017;-80
2024/01/25 11:10:25;;;;;;;34.80;12.15;;;;;;;8.90;100.00;102814.03;5250495;28;20419;-79
2024/01/25 11:12:59;;;;;;;34.45;12.15;;;;;;;8.91;100.00;102808.75;5256750;28;20048;-80
2024/01/25 11:15:36;;;;;;;35.13;12.70;;;;;;;8.90;100.00;102798.34;5257060;28;20414;-79
2024/01/25 11:18:08;;;;;;;34.53;12.02;;;;;;;8.90;100.00;102800.97;5255343;28;20029;-80
2024/01/25 11:20:40;;;;;;;31.83;11.52;;;;;;;8.94;100.00;102795.56;5261449;28;20039;-80
2024/01/25 11:23:16;;;;;;;36.03;12.07;;;;;;;8.98;100.00;102796.25;5251369;28;20041;-79
2024/01/25 11:25:48;;;;;;;28.05;11.43;;;;;;;8.95;100.00;102786.78;5250773;28;20036;-80
2024/01/25 11:28:19;;;;;;;34.53;13.30;;;;;;;8.94;100.00;102781.63;5249748;28;20397;-79
2024/01/25 11:30:51;;;;;;;31.73;11.43;;;;;;;8.99;100.00;102777.03;5254214;28;20044;-79
2024/01/25 11:33:23;;;;;;;34.60;12.88;;;;;;;9.07;100.00;102782.75;5252068;28;20611;-79
2024/01/25 11:35:55;;;;;;;36.53;12.38;;;;;;;9.13;100.00;102784.19;5261026;28;20386;-79
2024/01/25 11:38:28;;;;;;;40.25;12.77;;;;;;;9.20;100.00;102783.00;5260105;28;20032;-79